Lilesville, North Carolina
Current Conditions -  °F | °C
As of 12:55 PM on Saturday 22 Nov 2014 (Local Time) from KAFP Reporting Station
Clear Clear  
Wind Chill: 54°   Ceiling: Unl
Heat Index: 54°   Visibility: 10mi
Dew Point: 12°   Wind: 0mph
Humidity: 19%   Direction: NA
Pressure: 30.46"   Gusts: NA
Location:  34.97°N, 79.98°W
Report Text: KAFP 221755Z AUTO 00000KT 10SM CLR 12/M11 A3046 RMK AO2 T01201112 10120 21071
Loading
Personal Weather Stations






























Interactive Weather Map New forecast layout! Learn more

10-Day Weather Forecast

Advertisements
Track Severe Weather on mobile